KBAB/BAB METAR and TAF weather

Enter ICAO airport designator
Station Type Date Time Source
KBAB METAR 2022/01/26 19:58 UTC NOAA

KBAB 261958Z AUTO 33007KT 10SM CLR 14/02 A3016 RMK AO2 SLP216 T01390022 $


Station Type Date Time Source
KBAB Decoded METAR 2022/01/26 19:58 UTC NOAA

Marysville, Beale Air Force Base, CA, United States (KBAB) 39-08N 121-26W
Jan 26, 2022 - 02:58 PM EST / 2022.01.26 1958 UTC
Wind: from the NNW (330 degrees) at 8 MPH (7 KT):0
Visibility: 10 mile(s):0
Sky conditions: clear
Temperature: 57.0 F (13.9 C)
Dew Point: 36.0 F (2.2 C)
Relative Humidity: 45%
Pressure (altimeter): 30.16 in. Hg (1021 hPa)
ob: KBAB 261958Z AUTO 33007KT 10SM CLR 14/02 A3016 RMK AO2 SLP216 T01390022
cycle: 20

Station Type Date Time Source
KBAB TAF 2022/01/26 19:08 UTC NOAA

TAF KBAB 261900Z 2619/2801 34006KT 9999 SKC QNH3010INS
BECMG 2703/2704 03006KT 9999 SKC QNH3013INS
BECMG 2720/2721 08006KT 9999 SKC QNH3024INS TX16/2623Z TN02/2715Z

Example: see airport list